createdAt,value
2019-04-10T00:01:26.348Z,10.93
2019-04-10T00:05:34.149Z,13.93
2019-04-10T00:09:41.904Z,10.60
2019-04-10T00:13:49.719Z,12.73
2019-04-10T00:17:57.843Z,11.67
2019-04-10T00:22:06.226Z,16.50
2019-04-10T00:26:15.252Z,34.33
2019-04-10T00:30:23.161Z,35.27
2019-04-10T00:34:31.836Z,40.17
2019-04-10T00:38:41.788Z,23.20
2019-04-10T00:42:50.190Z,20.03
2019-04-10T00:46:58.909Z,27.67
2019-04-10T00:51:07.228Z,20.80
2019-04-10T00:55:15.343Z,16.07
2019-04-10T00:59:24.052Z,17.87
2019-04-10T01:03:46.664Z,15.40
2019-04-10T01:07:54.248Z,15.37
2019-04-10T01:12:01.998Z,31.40
2019-04-10T01:16:11.206Z,21.43
2019-04-10T01:20:19.655Z,21.30
2019-04-10T01:24:28.453Z,23.07
2019-04-10T01:28:36.776Z,14.17
2019-04-10T01:32:44.440Z,17.40
2019-04-10T01:36:54.607Z,15.83
2019-04-10T01:41:03.829Z,15.83
2019-04-10T01:45:11.690Z,13.57
2019-04-10T01:49:19.677Z,13.10
2019-04-10T01:53:28.046Z,13.97
2019-04-10T01:57:36.643Z,11.50
2019-04-10T02:01:52.509Z,13.37
2019-04-10T02:06:01.041Z,14.23
2019-04-10T02:10:10.115Z,11.37
2019-04-10T02:14:18.390Z,14.07
2019-04-10T02:18:26.287Z,14.33
2019-04-10T02:22:34.227Z,17.87
2019-04-10T02:26:43.407Z,38.73
2019-04-10T02:30:51.922Z,39.53
2019-04-10T02:35:01.104Z,34.27
2019-04-10T02:39:20.713Z,37.30
2019-04-10T02:43:18.997Z,33.17
2019-04-10T02:47:26.735Z,40.63
2019-04-10T02:51:36.039Z,56.50
2019-04-10T02:55:44.206Z,136.23
2019-04-10T02:59:53.671Z,107.30
2019-04-10T03:04:03.315Z,68.57
2019-04-10T03:08:13.022Z,67.47
2019-04-10T03:12:21.890Z,65.00
2019-04-10T03:16:29.940Z,233.40
2019-04-10T03:20:38.524Z,380.03
2019-04-10T03:24:46.550Z,116.03
2019-04-10T03:28:55.613Z,59.53
2019-04-10T03:33:14.293Z,84.27
2019-04-10T03:37:20.275Z,51.70
2019-04-10T03:41:28.644Z,97.00
2019-04-10T03:45:36.931Z,139.00
2019-04-10T03:49:44.824Z,178.97
2019-04-10T03:53:52.520Z,71.47
2019-04-10T03:58:00.963Z,78.13
2019-04-10T04:02:09.060Z,74.73
2019-04-10T04:06:17.989Z,54.10
2019-04-10T04:10:26.731Z,56.37
2019-04-10T04:14:34.858Z,49.30
2019-04-10T04:18:43.520Z,50.83
2019-04-10T04:22:52.835Z,45.33
2019-04-10T04:27:01.226Z,43.37
2019-04-10T04:31:09.480Z,50.43
2019-04-10T04:35:17.628Z,42.40
2019-04-10T04:39:28.142Z,38.20
2019-04-10T04:43:34.839Z,44.70
2019-04-10T04:47:43.322Z,40.80
2019-04-10T04:51:51.300Z,52.43
2019-04-10T04:56:01.732Z,50.63
2019-04-10T05:00:10.223Z,44.97
2019-04-10T05:04:17.997Z,43.90
2019-04-10T05:08:28.117Z,46.00
2019-04-10T05:12:36.161Z,54.70
2019-04-10T05:16:43.885Z,51.77
2019-04-10T05:20:52.625Z,50.40
2019-04-10T05:25:00.970Z,54.63
2019-04-10T05:29:08.991Z,52.73
2019-04-10T05:33:16.969Z,55.30
2019-04-10T05:37:24.673Z,56.07
2019-04-10T05:41:33.498Z,64.83
2019-04-10T05:45:42.200Z,50.33
2019-04-10T05:49:50.159Z,43.60
2019-04-10T05:53:58.267Z,57.53
2019-04-10T05:58:07.133Z,42.10
2019-04-10T06:02:15.895Z,42.37
2019-04-10T06:06:24.252Z,45.57
2019-04-10T06:10:32.389Z,43.60
2019-04-10T06:14:40.107Z,40.50
2019-04-10T06:18:48.224Z,39.63
2019-04-10T06:22:56.168Z,38.10
2019-04-10T06:27:04.464Z,31.53
2019-04-10T06:31:12.865Z,31.60
2019-04-10T06:35:21.866Z,34.20
2019-04-10T06:39:30.967Z,33.90
2019-04-10T06:43:39.283Z,34.33
2019-04-10T06:47:46.985Z,36.77
2019-04-10T06:51:55.597Z,36.13
2019-04-10T06:56:04.879Z,34.27
2019-04-10T07:00:16.533Z,29.37
2019-04-10T07:04:25.312Z,26.83
2019-04-10T07:08:34.358Z,26.53
2019-04-10T07:12:43.878Z,29.23
2019-04-10T07:16:52.716Z,24.47
2019-04-10T07:21:01.980Z,23.07
2019-04-10T07:25:12.689Z,34.93
2019-04-10T07:29:24.746Z,25.97
2019-04-10T07:33:30.904Z,36.57
2019-04-10T07:37:38.711Z,34.93
2019-04-10T07:41:47.338Z,33.17
2019-04-10T07:45:56.833Z,31.20
2019-04-10T07:50:08.153Z,29.07
2019-04-10T07:54:18.334Z,34.27
2019-04-10T07:58:24.718Z,34.03
2019-04-10T08:02:32.524Z,30.17
2019-04-10T08:06:42.313Z,27.87
2019-04-10T08:10:50.951Z,26.57
2019-04-10T08:14:58.950Z,31.97
2019-04-10T08:19:08.177Z,34.03
2019-04-10T08:23:16.182Z,28.60
2019-04-10T08:27:25.546Z,29.00
2019-04-10T08:31:33.368Z,34.00
2019-04-10T08:35:42.487Z,30.30
2019-04-10T08:39:51.390Z,33.70
2019-04-10T08:43:59.860Z,37.43
2019-04-10T08:48:08.040Z,35.10
2019-04-10T08:52:16.702Z,40.50
2019-04-10T08:56:25.003Z,36.00
2019-04-10T09:00:34.319Z,35.93
2019-04-10T09:04:42.162Z,35.33
2019-04-10T09:08:50.964Z,30.20
2019-04-10T09:12:59.945Z,34.17
2019-04-10T09:17:08.993Z,28.47
2019-04-10T09:21:17.463Z,30.47
2019-04-10T09:25:25.228Z,29.83
2019-04-10T09:29:33.194Z,27.97
2019-04-10T09:33:41.079Z,24.80
2019-04-10T09:37:49.062Z,20.20
2019-04-10T09:41:56.766Z,25.27
2019-04-10T09:46:06.492Z,30.27
2019-04-10T09:50:15.133Z,28.03
2019-04-10T09:54:23.987Z,24.53
2019-04-10T09:58:32.517Z,27.23
2019-04-10T10:02:40.530Z,24.77
2019-04-10T10:06:49.375Z,20.37
2019-04-10T10:10:57.638Z,19.23
2019-04-10T10:15:07.252Z,18.07
2019-04-10T10:19:16.083Z,17.70
2019-04-10T10:23:23.893Z,18.77
2019-04-10T10:27:32.225Z,16.97
2019-04-10T10:31:40.617Z,14.67
2019-04-10T10:35:49.506Z,15.23
2019-04-10T10:39:57.484Z,12.20
2019-04-10T10:44:05.238Z,14.07
2019-04-10T10:48:13.692Z,14.30
2019-04-10T10:52:23.674Z,12.47
2019-04-10T10:56:31.571Z,18.23
2019-04-10T11:00:39.298Z,13.83
2019-04-10T11:04:47.525Z,22.43
2019-04-10T11:08:55.715Z,23.53
2019-04-10T11:13:03.451Z,15.33
2019-04-10T11:17:12.001Z,20.83
2019-04-10T11:21:20.711Z,19.23
2019-04-10T11:25:30.205Z,19.90
2019-04-10T11:29:38.996Z,17.40
2019-04-10T11:33:51.374Z,12.47
2019-04-10T11:37:59.576Z,9.80
2019-04-10T11:42:09.913Z,10.83
2019-04-10T11:46:17.993Z,5.80
2019-04-10T11:50:28.129Z,7.23
2019-04-10T11:54:40.964Z,8.10
2019-04-10T11:58:53.791Z,11.57
2019-04-10T12:02:58.740Z,7.70
2019-04-10T12:07:06.025Z,12.40
2019-04-10T12:11:18.553Z,12.87
2019-04-10T12:15:23.971Z,12.13
2019-04-10T12:19:32.130Z,12.43
2019-04-10T12:23:40.949Z,13.50
2019-04-10T12:27:49.436Z,9.73
2019-04-10T12:31:57.326Z,10.87
2019-04-10T12:36:06.841Z,9.63
2019-04-10T12:40:15.206Z,16.93
2019-04-10T12:44:23.542Z,10.10
2019-04-10T12:48:31.300Z,12.53
2019-04-10T12:52:39.347Z,10.07
2019-04-10T12:56:47.191Z,12.50
2019-04-10T13:00:56.306Z,14.77
2019-04-10T13:05:05.762Z,5.63
2019-04-10T13:09:14.478Z,5.43
2019-04-10T13:13:22.800Z,7.00
2019-04-10T13:17:33.197Z,5.90
2019-04-10T13:21:42.436Z,7.30
2019-04-10T13:25:58.121Z,5.20
2019-04-10T13:30:00.692Z,4.97
2019-04-10T13:34:09.049Z,6.00
2019-04-10T13:38:24.855Z,6.43
2019-04-10T13:42:27.295Z,10.87
2019-04-10T13:46:35.349Z,7.60
2019-04-10T13:50:44.224Z,7.00
2019-04-10T13:54:52.647Z,7.60
2019-04-10T13:59:00.615Z,5.37
2019-04-10T14:03:08.822Z,7.33
2019-04-10T14:07:17.926Z,6.43
2019-04-10T14:11:26.866Z,15.57
2019-04-10T14:15:35.897Z,8.03
2019-04-10T14:19:44.352Z,5.33
2019-04-10T14:23:52.002Z,5.77
2019-04-10T14:28:00.574Z,4.97
2019-04-10T14:32:11.375Z,7.07
2019-04-10T14:36:20.837Z,5.60
2019-04-10T14:40:29.158Z,4.17
2019-04-10T14:44:37.061Z,5.97
2019-04-10T14:48:44.819Z,6.17
2019-04-10T14:52:53.704Z,8.70
2019-04-10T14:57:02.352Z,10.73
2019-04-10T15:01:11.528Z,16.13
2019-04-10T15:05:19.306Z,17.53
2019-04-10T15:09:27.726Z,12.97
2019-04-10T15:13:36.162Z,12.27
2019-04-10T15:17:45.158Z,9.30
2019-04-10T15:21:54.025Z,12.23
2019-04-10T15:26:02.078Z,11.73
2019-04-10T15:30:11.236Z,10.53
2019-04-10T15:34:20.485Z,15.83
2019-04-10T15:38:28.475Z,12.43
2019-04-10T15:42:37.416Z,10.93
2019-04-10T15:46:46.236Z,10.83
2019-04-10T15:50:54.171Z,11.47
2019-04-10T15:55:02.006Z,22.07
2019-04-10T15:59:12.164Z,20.70
2019-04-10T16:03:20.049Z,21.23
2019-04-10T16:07:28.878Z,12.20
2019-04-10T16:11:54.248Z,19.73
2019-04-10T16:16:25.527Z,12.33
2019-04-10T16:20:35.013Z,40.57
2019-04-10T16:24:43.003Z,13.60
2019-04-10T16:28:51.568Z,10.43
2019-04-10T16:33:00.824Z,13.87
2019-04-10T16:37:10.420Z,15.93
2019-04-10T16:41:19.424Z,18.40
2019-04-10T16:45:28.444Z,19.67
2019-04-10T16:49:37.168Z,19.93
2019-04-10T16:53:45.509Z,17.27
2019-04-10T16:57:53.565Z,25.20
2019-04-10T17:02:01.874Z,19.83
2019-04-10T17:06:10.259Z,28.27
2019-04-10T17:10:23.043Z,21.60
2019-04-10T17:14:29.335Z,25.27
2019-04-10T17:18:37.483Z,19.03
2019-04-10T17:22:49.200Z,21.77
2019-04-10T17:26:55.742Z,22.00
2019-04-10T17:31:07.367Z,23.20
2019-04-10T17:35:15.831Z,37.77
2019-04-10T17:39:25.042Z,33.67
2019-04-10T17:43:33.325Z,78.40
2019-04-10T17:47:41.424Z,129.50
2019-04-10T17:51:50.300Z,160.23
2019-04-10T17:55:58.320Z,109.90
2019-04-10T18:00:11.184Z,77.27
2019-04-10T18:04:20.061Z,97.17
2019-04-10T18:08:30.104Z,61.27
2019-04-10T18:12:38.386Z,25.83
2019-04-10T18:16:46.417Z,26.83
2019-04-10T18:20:54.507Z,23.73
2019-04-10T18:25:03.389Z,19.57
2019-04-10T18:29:11.669Z,24.63
2019-04-10T18:33:20.418Z,29.57
2019-04-10T18:37:30.048Z,22.20
2019-04-10T18:41:40.226Z,18.03
2019-04-10T18:45:57.465Z,20.57
2019-04-10T18:49:58.164Z,20.63
2019-04-10T18:54:06.395Z,21.73
2019-04-10T18:58:17.358Z,17.63
2019-04-10T19:02:49.746Z,17.90
2019-04-10T19:06:59.331Z,17.47
2019-04-10T19:11:17.565Z,13.23
2019-04-10T19:15:17.051Z,13.33
2019-04-10T19:19:25.968Z,12.33
2019-04-10T19:23:34.032Z,13.27
2019-04-10T19:27:44.392Z,21.67
2019-04-10T19:31:56.209Z,13.70
2019-04-10T19:36:07.800Z,14.20
2019-04-10T19:40:15.981Z,26.03
2019-04-10T19:44:23.879Z,14.03
2019-04-10T19:48:33.686Z,17.40
2019-04-10T19:52:41.514Z,13.20
2019-04-10T19:56:49.204Z,16.20
2019-04-10T20:00:57.317Z,15.23
2019-04-10T20:05:05.664Z,18.00
2019-04-10T20:09:14.466Z,13.57
2019-04-10T20:13:22.732Z,14.50
2019-04-10T20:17:31.016Z,15.80
2019-04-10T20:21:39.742Z,15.33
2019-04-10T20:25:48.449Z,22.73
2019-04-10T20:29:56.722Z,14.00
2019-04-10T20:34:05.416Z,16.00
2019-04-10T20:38:13.504Z,16.83
2019-04-10T20:42:22.323Z,27.40
2019-04-10T20:46:30.819Z,23.37
2019-04-10T20:50:39.481Z,22.17
2019-04-10T20:54:47.462Z,21.03
2019-04-10T20:58:55.159Z,25.60
2019-04-10T21:03:02.895Z,21.57
2019-04-10T21:07:10.999Z,20.63
2019-04-10T21:11:18.729Z,21.93
2019-04-10T21:15:27.573Z,22.60
2019-04-10T21:19:35.686Z,19.40
2019-04-10T21:23:44.261Z,22.20
2019-04-10T21:27:54.673Z,22.80
2019-04-10T21:32:10.600Z,24.87
2019-04-10T21:36:18.552Z,25.57
2019-04-10T21:40:27.182Z,20.70
2019-04-10T21:44:35.221Z,21.87
2019-04-10T21:48:43.342Z,19.87
2019-04-10T21:52:51.981Z,21.83
2019-04-10T21:56:59.868Z,20.40
2019-04-10T22:01:11.778Z,19.27
2019-04-10T22:05:19.831Z,23.17
2019-04-10T22:09:55.735Z,22.90
2019-04-10T22:14:04.516Z,18.40
2019-04-10T22:18:12.833Z,19.90
2019-04-10T22:22:20.725Z,18.03
2019-04-10T22:26:29.755Z,18.37
2019-04-10T22:30:37.775Z,19.30
2019-04-10T22:34:46.416Z,23.40
2019-04-10T22:38:54.224Z,18.17
2019-04-10T22:43:03.277Z,16.73
2019-04-10T22:47:11.566Z,19.27
2019-04-10T22:51:19.380Z,19.40
2019-04-10T22:55:28.135Z,18.50
2019-04-10T22:59:36.217Z,14.73
2019-04-10T23:03:45.317Z,14.97
2019-04-10T23:07:55.574Z,22.87
2019-04-10T23:12:03.627Z,21.33
2019-04-10T23:16:15.408Z,18.57
2019-04-10T23:20:22.021Z,13.87
2019-04-10T23:24:29.898Z,17.23
2019-04-10T23:28:38.167Z,13.77
2019-04-10T23:32:46.183Z,17.63
2019-04-10T23:36:54.115Z,15.70
2019-04-10T23:41:02.104Z,16.80
2019-04-10T23:45:13.517Z,13.50
2019-04-10T23:49:21.548Z,11.93
2019-04-10T23:53:29.316Z,15.63
2019-04-10T23:57:37.746Z,16.07
